createdAt,value
2023-01-29T00:01:07.217Z,103209.66
2023-01-29T00:03:34.353Z,103204.47
2023-01-29T00:06:06.347Z,103202.72
2023-01-29T00:08:37.210Z,103195.81
2023-01-29T00:11:08.769Z,103188.84
2023-01-29T00:13:35.825Z,103182.81
2023-01-29T00:16:03.323Z,103175.00
2023-01-29T00:18:30.015Z,103171.56
2023-01-29T00:20:56.591Z,103176.75
2023-01-29T00:23:23.874Z,103165.50
2023-01-29T00:25:50.449Z,103162.06
2023-01-29T00:28:16.909Z,103149.13
2023-01-29T00:30:43.541Z,103157.88
2023-01-29T00:33:11.865Z,103149.31
2023-01-29T00:35:40.127Z,103150.16
2023-01-29T00:38:06.837Z,103158.88
2023-01-29T00:40:56.329Z,103166.75
2023-01-29T00:43:41.723Z,103165.00
2023-01-29T00:46:08.342Z,103167.59
2023-01-29T00:48:34.936Z,103166.75
2023-01-29T00:51:02.888Z,103154.66
2023-01-29T00:53:29.848Z,103152.06
2023-01-29T00:55:56.425Z,103153.84
2023-01-29T00:58:28.178Z,103147.78
2023-01-29T01:00:56.107Z,103152.13
2023-01-29T01:03:22.706Z,103145.25
2023-01-29T01:05:49.254Z,103149.53
2023-01-29T01:08:34.292Z,103147.84
2023-01-29T01:11:06.417Z,103141.03
2023-01-29T01:13:34.628Z,103149.63
2023-01-29T01:16:01.268Z,103142.66
2023-01-29T01:18:31.408Z,103139.22
2023-01-29T01:20:59.647Z,103135.78
2023-01-29T01:23:26.293Z,103133.16
2023-01-29T01:25:52.728Z,103130.56
2023-01-29T01:28:19.247Z,103141.72
2023-01-29T01:30:45.903Z,103136.59
2023-01-29T01:33:12.634Z,103146.91
2023-01-29T01:35:39.837Z,103153.06
2023-01-29T01:38:06.740Z,103146.09
2023-01-29T01:40:33.377Z,103152.22
2023-01-29T01:43:00.999Z,103149.63
2023-01-29T01:45:36.039Z,103153.97
2023-01-29T01:48:05.613Z,103154.81
2023-01-29T01:50:37.393Z,103150.44
2023-01-29T01:53:08.208Z,103143.56
2023-01-29T01:55:39.584Z,103149.63
2023-01-29T01:58:11.904Z,103153.88
2023-01-29T02:00:39.822Z,103149.53
2023-01-29T02:03:26.488Z,103146.09
2023-01-29T02:06:14.366Z,103137.44
2023-01-29T02:09:14.877Z,103146.09
2023-01-29T02:11:41.534Z,103151.28
2023-01-29T02:14:08.488Z,103152.22
2023-01-29T02:16:36.318Z,103145.25
2023-01-29T02:19:05.475Z,103152.22
2023-01-29T02:22:01.047Z,103145.25
2023-01-29T02:24:40.088Z,103144.31
2023-01-29T02:27:12.498Z,103147.00
2023-01-29T02:30:02.426Z,103153.06
2023-01-29T02:32:40.979Z,103143.47
2023-01-29T02:35:29.998Z,103148.69
2023-01-29T02:37:59.526Z,103160.88
2023-01-29T02:40:50.284Z,103164.31
2023-01-29T02:43:38.621Z,103167.75
2023-01-29T02:46:26.088Z,103166.00
2023-01-29T02:49:30.360Z,103165.13
2023-01-29T02:52:07.476Z,103174.72
2023-01-29T02:54:41.789Z,103169.44
2023-01-29T02:57:39.703Z,103172.06
2023-01-29T03:00:27.788Z,103165.06
2023-01-29T03:02:57.875Z,103167.59
2023-01-29T03:05:30.630Z,103163.31
2023-01-29T03:08:04.139Z,103156.34
2023-01-29T03:10:40.635Z,103163.22
2023-01-29T03:13:15.000Z,103154.66
2023-01-29T03:15:47.394Z,103150.31
2023-01-29T03:18:27.833Z,103143.34
2023-01-29T03:21:00.530Z,103140.81
2023-01-29T03:23:53.977Z,103145.94
2023-01-29T03:26:42.621Z,103136.44
2023-01-29T03:29:31.226Z,103130.41
2023-01-29T03:32:04.541Z,103126.03
2023-01-29T03:34:39.037Z,103125.22
2023-01-29T03:37:13.854Z,103112.19
2023-01-29T03:39:40.297Z,103112.25
2023-01-29T03:42:16.218Z,103096.66
2023-01-29T03:44:47.005Z,103098.50
2023-01-29T03:47:22.847Z,103103.72
2023-01-29T03:49:58.496Z,103099.34
2023-01-29T03:52:57.081Z,103098.50
2023-01-29T03:55:35.024Z,103100.28
2023-01-29T03:58:44.849Z,103102.94
2023-01-29T04:01:18.452Z,103090.75
2023-01-29T04:04:01.741Z,103083.88
2023-01-29T04:06:32.929Z,103089.09
2023-01-29T04:09:05.214Z,103085.66
2023-01-29T04:11:36.155Z,103079.50
2023-01-29T04:14:03.221Z,103080.44
2023-01-29T04:16:37.011Z,103070.09
2023-01-29T04:19:05.315Z,103070.97
2023-01-29T04:21:32.877Z,103078.84
2023-01-29T04:23:59.477Z,103078.00
2023-01-29T04:26:50.625Z,103068.53
2023-01-29T04:29:51.607Z,103060.63
2023-01-29T04:32:32.030Z,103070.19
2023-01-29T04:35:34.009Z,103068.44
2023-01-29T04:38:12.910Z,103071.97
2023-01-29T04:41:08.887Z,103068.53
2023-01-29T04:43:38.306Z,103062.47
2023-01-29T04:46:18.411Z,103063.38
2023-01-29T04:48:47.895Z,103060.78
2023-01-29T04:51:21.145Z,103060.03
2023-01-29T04:54:02.678Z,103063.47
2023-01-29T04:56:39.087Z,103049.53
2023-01-29T04:59:09.915Z,103044.44
2023-01-29T05:01:38.619Z,103047.09
2023-01-29T05:04:08.763Z,103044.50
2023-01-29T05:06:36.991Z,103036.88
2023-01-29T05:09:03.921Z,103037.72
2023-01-29T05:11:33.125Z,103044.69
2023-01-29T05:14:03.851Z,103035.19
2023-01-29T05:16:41.994Z,103037.78
2023-01-29T05:19:13.986Z,103035.25
2023-01-29T05:21:43.840Z,103042.13
2023-01-29T05:24:18.310Z,103045.66
2023-01-29T05:27:07.332Z,103044.06
2023-01-29T05:29:34.037Z,103051.03
2023-01-29T05:32:00.643Z,103050.19
2023-01-29T05:34:27.510Z,103058.00
2023-01-29T05:36:54.000Z,103051.88
2023-01-29T05:39:20.552Z,103048.53
2023-01-29T05:41:47.097Z,103048.44
2023-01-29T05:44:13.806Z,103045.91
2023-01-29T05:46:40.351Z,103046.75
2023-01-29T05:49:06.858Z,103046.75
2023-01-29T05:51:33.399Z,103064.03
2023-01-29T05:53:59.999Z,103055.41
2023-01-29T05:56:26.612Z,103043.22
2023-01-29T05:58:53.171Z,103033.66
2023-01-29T06:01:22.994Z,103031.16
2023-01-29T06:03:49.938Z,103026.78
2023-01-29T06:06:16.919Z,103026.78
2023-01-29T06:08:43.506Z,103018.97
2023-01-29T06:11:12.442Z,103020.81
2023-01-29T06:13:39.977Z,103014.78
2023-01-29T06:16:07.849Z,103015.59
2023-01-29T06:18:35.508Z,103018.31
2023-01-29T06:21:06.246Z,103009.72
2023-01-29T06:23:33.147Z,103010.59
2023-01-29T06:26:05.150Z,103006.22
2023-01-29T06:28:31.756Z,103001.91
2023-01-29T06:31:11.361Z,103006.22
2023-01-29T06:33:38.691Z,102996.66
2023-01-29T06:36:05.745Z,102998.41
2023-01-29T06:38:32.659Z,102992.38
2023-01-29T06:40:59.465Z,102999.25
2023-01-29T06:43:26.215Z,102995.72
2023-01-29T06:45:55.134Z,102999.16
2023-01-29T06:48:22.641Z,103000.94
2023-01-29T06:50:49.832Z,103013.00
2023-01-29T06:53:18.179Z,103001.75
2023-01-29T06:55:52.022Z,103000.84
2023-01-29T06:58:18.642Z,102994.81
2023-01-29T07:00:45.160Z,102992.19
2023-01-29T07:03:11.765Z,103000.00
2023-01-29T07:05:38.567Z,103001.75
2023-01-29T07:08:05.362Z,102998.22
2023-01-29T07:10:32.087Z,102984.34
2023-01-29T07:13:02.044Z,102999.00
2023-01-29T07:15:28.470Z,102991.19
2023-01-29T07:18:02.598Z,102996.41
2023-01-29T07:20:30.311Z,103002.44
2023-01-29T07:22:58.204Z,102999.84
2023-01-29T07:25:25.932Z,103010.34
2023-01-29T07:27:52.478Z,102997.34
2023-01-29T07:30:19.249Z,102992.97
2023-01-29T07:32:45.898Z,102995.56
2023-01-29T07:35:12.391Z,102995.56
2023-01-29T07:37:38.988Z,102999.84
2023-01-29T07:40:11.286Z,102994.63
2023-01-29T07:42:42.887Z,102988.50
2023-01-29T07:45:10.826Z,102981.63
2023-01-29T07:47:37.552Z,102984.16
2023-01-29T07:50:05.389Z,102979.81
2023-01-29T07:52:33.624Z,102971.16
2023-01-29T07:55:00.105Z,102972.75
2023-01-29T07:57:26.773Z,102972.75
2023-01-29T07:59:53.272Z,102964.94
2023-01-29T08:02:19.802Z,102957.22
2023-01-29T08:04:46.606Z,102957.97
2023-01-29T08:07:13.078Z,102950.94
2023-01-29T08:09:39.567Z,102956.91
2023-01-29T08:12:06.292Z,102955.03
2023-01-29T08:14:33.235Z,102952.44
2023-01-29T08:16:59.649Z,102953.22
2023-01-29T08:19:26.105Z,102950.63
2023-01-29T08:21:52.654Z,102953.88
2023-01-29T08:24:19.329Z,102959.00
2023-01-29T08:26:45.892Z,102958.91
2023-01-29T08:29:13.090Z,102953.63
2023-01-29T08:31:39.644Z,102954.38
2023-01-29T08:34:06.480Z,102946.41
2023-01-29T08:36:33.081Z,102945.56
2023-01-29T08:38:59.546Z,102934.22
2023-01-29T08:41:26.062Z,102930.72
2023-01-29T08:43:52.592Z,102931.38
2023-01-29T08:46:19.374Z,102924.31
2023-01-29T08:48:45.906Z,102922.47
2023-01-29T08:51:13.011Z,102930.19
2023-01-29T08:53:39.559Z,102924.91
2023-01-29T08:56:06.402Z,102919.63
2023-01-29T08:58:32.921Z,102922.03
2023-01-29T09:01:10.644Z,102908.03
2023-01-29T09:03:37.402Z,102916.56
2023-01-29T09:06:04.109Z,102920.78
2023-01-29T09:08:30.688Z,102913.69
2023-01-29T09:11:00.165Z,102915.31
2023-01-29T09:13:27.165Z,102918.66
2023-01-29T09:15:53.745Z,102918.66
2023-01-29T09:18:22.050Z,102920.25
2023-01-29T09:20:48.896Z,102918.41
2023-01-29T09:23:15.632Z,102914.88
2023-01-29T09:25:43.095Z,102920.63
2023-01-29T09:28:09.765Z,102922.22
2023-01-29T09:30:38.253Z,102929.88
2023-01-29T09:33:06.359Z,102925.44
2023-01-29T09:35:33.261Z,102920.94
2023-01-29T09:38:01.426Z,102919.94
2023-01-29T09:40:33.766Z,102920.69
2023-01-29T09:43:15.906Z,102926.56
2023-01-29T09:45:52.245Z,102922.00
2023-01-29T09:48:21.853Z,102914.94
2023-01-29T09:50:55.098Z,102914.00
2023-01-29T09:53:31.731Z,102915.69
2023-01-29T09:56:06.146Z,102921.47
2023-01-29T09:58:37.150Z,102923.03
2023-01-29T10:01:13.725Z,102921.09
2023-01-29T10:03:49.581Z,102920.09
2023-01-29T10:06:48.521Z,102919.81
2023-01-29T10:09:52.587Z,102916.38
2023-01-29T10:12:37.839Z,102913.88
2023-01-29T10:15:22.460Z,102899.91
2023-01-29T10:17:52.164Z,102906.06
2023-01-29T10:20:46.415Z,102901.56
2023-01-29T10:23:36.728Z,102899.06
2023-01-29T10:26:11.805Z,102898.31
2023-01-29T10:28:43.296Z,102894.97
2023-01-29T10:31:39.184Z,102890.69
2023-01-29T10:34:43.276Z,102883.91
2023-01-29T10:37:19.699Z,102876.06
2023-01-29T10:39:46.555Z,102874.19
2023-01-29T10:42:19.902Z,102869.00
2023-01-29T10:44:49.721Z,102866.13
2023-01-29T10:47:30.371Z,102858.97
2023-01-29T10:50:09.765Z,102853.47
2023-01-29T10:52:55.115Z,102861.84
2023-01-29T10:56:20.950Z,102848.63
2023-01-29T10:58:54.797Z,102847.59
2023-01-29T11:01:21.722Z,102844.06
2023-01-29T11:03:57.356Z,102842.41
2023-01-29T11:06:30.081Z,102838.84
2023-01-29T11:09:25.512Z,102839.50
2023-01-29T11:12:14.268Z,102830.84
2023-01-29T11:15:05.899Z,102830.66
2023-01-29T11:17:32.631Z,102819.41
2023-01-29T11:20:02.353Z,102821.78
2023-01-29T11:22:30.698Z,102821.72
2023-01-29T11:25:19.968Z,102811.28
2023-01-29T11:27:49.508Z,102819.13
2023-01-29T11:30:21.835Z,102813.72
2023-01-29T11:33:05.187Z,102818.81
2023-01-29T11:35:33.339Z,102811.19
2023-01-29T11:38:09.476Z,102816.31
2023-01-29T11:40:39.540Z,102806.72
2023-01-29T11:43:19.017Z,102796.28
2023-01-29T11:45:46.093Z,102793.59
2023-01-29T11:48:19.540Z,102797.13
2023-01-29T11:51:01.043Z,102790.97
2023-01-29T11:53:41.185Z,102790.97
2023-01-29T11:56:34.163Z,102788.38
2023-01-29T11:59:06.081Z,102791.91
2023-01-29T12:01:36.908Z,102782.31
2023-01-29T12:04:16.240Z,102777.09
2023-01-29T12:06:49.108Z,102771.06
2023-01-29T12:09:19.449Z,102770.13
2023-01-29T12:11:45.940Z,102762.28
2023-01-29T12:14:34.324Z,102759.69
2023-01-29T12:17:18.937Z,102749.25
2023-01-29T12:20:00.026Z,102743.13
2023-01-29T12:22:53.517Z,102734.25
2023-01-29T12:25:35.427Z,102729.81
2023-01-29T12:28:25.871Z,102721.16
2023-01-29T12:31:07.696Z,102723.75
2023-01-29T12:33:47.114Z,102713.41
2023-01-29T12:36:52.940Z,102707.16
2023-01-29T12:39:21.320Z,102699.22
2023-01-29T12:41:57.322Z,102707.06
2023-01-29T12:44:37.046Z,102691.34
2023-01-29T12:47:08.166Z,102688.81
2023-01-29T12:49:39.664Z,102680.16
2023-01-29T12:52:34.535Z,102683.59
2023-01-29T12:55:06.998Z,102681.94
2023-01-29T12:57:46.755Z,102665.44
2023-01-29T13:00:18.752Z,102647.19
2023-01-29T13:02:52.480Z,102641.16
2023-01-29T13:05:37.780Z,102634.06
2023-01-29T13:08:14.894Z,102621.84
2023-01-29T13:10:49.881Z,102616.75
2023-01-29T13:13:33.112Z,102610.50
2023-01-29T13:16:01.491Z,102605.38
2023-01-29T13:18:49.412Z,102594.03
2023-01-29T13:21:27.451Z,102585.25
2023-01-29T13:24:03.287Z,102577.88
2023-01-29T13:26:30.910Z,102567.00
2023-01-29T13:28:58.084Z,102558.66
2023-01-29T13:31:30.207Z,102560.66
2023-01-29T13:34:28.322Z,102552.53
2023-01-29T13:36:59.292Z,102555.75
2023-01-29T13:39:31.896Z,102539.16
2023-01-29T13:42:01.125Z,102543.44
2023-01-29T13:44:30.536Z,102549.38
2023-01-29T13:47:03.063Z,102543.25
2023-01-29T13:49:38.380Z,102551.91
2023-01-29T13:52:23.786Z,102535.31
2023-01-29T13:54:53.949Z,102547.59
2023-01-29T13:57:39.364Z,102544.06
2023-01-29T14:00:06.874Z,102543.00
2023-01-29T14:02:33.533Z,102541.97
2023-01-29T14:05:31.289Z,102540.19
2023-01-29T14:08:13.933Z,102537.50
2023-01-29T14:10:42.634Z,102537.38
2023-01-29T14:13:18.533Z,102533.94
2023-01-29T14:15:49.218Z,102539.16
2023-01-29T14:18:19.597Z,102531.31
2023-01-29T14:21:05.811Z,102521.84
2023-01-29T14:23:41.530Z,102515.56
2023-01-29T14:26:26.602Z,102519.09
2023-01-29T14:29:25.454Z,102520.06
2023-01-29T14:32:00.445Z,102531.44
2023-01-29T14:34:31.764Z,102525.16
2023-01-29T14:37:15.718Z,102506.69
2023-01-29T14:39:45.237Z,102505.03
2023-01-29T14:42:20.679Z,102505.03
2023-01-29T14:45:24.670Z,102500.84
2023-01-29T14:47:51.315Z,102498.34
2023-01-29T14:50:31.853Z,102493.97
2023-01-29T14:53:30.105Z,102497.41
2023-01-29T14:56:04.319Z,102492.31
2023-01-29T14:58:38.608Z,102490.63
2023-01-29T15:01:14.857Z,102496.78
2023-01-29T15:03:49.947Z,102486.47
2023-01-29T15:06:21.614Z,102480.38
2023-01-29T15:08:58.055Z,102473.41
2023-01-29T15:11:34.120Z,102464.53
2023-01-29T15:14:16.813Z,102462.75
2023-01-29T15:16:53.799Z,102464.44
2023-01-29T15:19:34.899Z,102460.13
2023-01-29T15:22:06.423Z,102458.38
2023-01-29T15:24:38.363Z,102454.09
2023-01-29T15:27:09.849Z,102462.88
2023-01-29T15:29:38.420Z,102457.75
2023-01-29T15:32:06.019Z,102462.25
2023-01-29T15:34:33.427Z,102457.97
2023-01-29T15:37:00.018Z,102462.38
2023-01-29T15:39:28.327Z,102445.03
2023-01-29T15:42:25.665Z,102440.88
2023-01-29T15:44:56.648Z,102436.56
2023-01-29T15:47:28.916Z,102433.25
2023-01-29T15:49:57.405Z,102435.88
2023-01-29T15:52:28.891Z,102431.56
2023-01-29T15:54:57.770Z,102425.63
2023-01-29T15:57:45.200Z,102425.75
2023-01-29T16:00:24.028Z,102429.28
2023-01-29T16:02:51.244Z,102422.41
2023-01-29T16:05:23.953Z,102430.34
2023-01-29T16:07:51.888Z,102425.22
2023-01-29T16:10:24.839Z,102432.34
2023-01-29T16:12:52.305Z,102440.19
2023-01-29T16:15:34.805Z,102443.81
2023-01-29T16:18:04.407Z,102439.56
2023-01-29T16:20:35.015Z,102439.75
2023-01-29T16:23:01.928Z,102437.34
2023-01-29T16:25:30.267Z,102438.50
2023-01-29T16:27:58.443Z,102437.06
2023-01-29T16:30:28.024Z,102446.75
2023-01-29T16:33:02.587Z,102438.09
2023-01-29T16:35:29.283Z,102429.44
2023-01-29T16:38:02.685Z,102427.78
2023-01-29T16:40:33.462Z,102424.31
2023-01-29T16:43:15.134Z,102412.34
2023-01-29T16:45:41.639Z,102413.19
2023-01-29T16:48:31.037Z,102415.03
2023-01-29T16:51:13.955Z,102395.97
2023-01-29T16:53:52.431Z,102409.94
2023-01-29T16:56:23.795Z,102416.19
2023-01-29T16:58:52.570Z,102405.88
2023-01-29T17:01:20.509Z,102402.53
2023-01-29T17:03:56.355Z,102402.53
2023-01-29T17:06:25.062Z,102400.13
2023-01-29T17:08:52.239Z,102409.03
2023-01-29T17:11:40.074Z,102410.88
2023-01-29T17:14:08.178Z,102407.56
2023-01-29T17:16:46.669Z,102400.59
2023-01-29T17:19:18.474Z,102404.97
2023-01-29T17:21:45.311Z,102392.84
2023-01-29T17:24:12.155Z,102402.44
2023-01-29T17:26:39.342Z,102394.75
2023-01-29T17:29:08.202Z,102387.88
2023-01-29T17:31:35.350Z,102392.22
2023-01-29T17:34:01.986Z,102393.28
2023-01-29T17:36:28.574Z,102393.19
2023-01-29T17:38:55.139Z,102392.47
2023-01-29T17:41:25.985Z,102384.72
2023-01-29T17:43:52.527Z,102388.28
2023-01-29T17:46:19.630Z,102365.78
2023-01-29T17:48:46.737Z,102361.47
2023-01-29T17:51:15.483Z,102355.34
2023-01-29T17:53:46.012Z,102347.53
2023-01-29T17:56:18.156Z,102353.66
2023-01-29T17:58:44.805Z,102352.00
2023-01-29T18:01:11.398Z,102338.84
2023-01-29T18:03:38.038Z,102343.25
2023-01-29T18:06:07.407Z,102341.47
2023-01-29T18:08:36.155Z,102334.50
2023-01-29T18:11:02.795Z,102332.81
2023-01-29T18:13:29.679Z,102329.28
2023-01-29T18:15:56.370Z,102331.03
2023-01-29T18:18:24.189Z,102311.06
2023-01-29T18:20:51.217Z,102316.25
2023-01-29T18:23:17.931Z,102313.53
2023-01-29T18:25:44.920Z,102320.53
2023-01-29T18:28:19.392Z,102314.38
2023-01-29T18:30:47.535Z,102309.16
2023-01-29T18:33:15.479Z,102303.00
2023-01-29T18:35:48.234Z,102296.88
2023-01-29T18:38:14.816Z,102297.69
2023-01-29T18:40:41.448Z,102284.66
2023-01-29T18:43:08.483Z,102281.09
2023-01-29T18:45:40.334Z,102266.31
2023-01-29T18:48:07.167Z,102259.44
2023-01-29T18:50:34.364Z,102250.78
2023-01-29T18:53:01.179Z,102247.22
2023-01-29T18:55:27.824Z,102250.66
2023-01-29T18:58:28.538Z,102254.09
2023-01-29T19:00:42.263Z,102243.78
2023-01-29T19:03:08.801Z,102244.63
2023-01-29T19:05:35.599Z,102231.59
2023-01-29T19:08:02.592Z,102232.44
2023-01-29T19:10:29.466Z,102220.34
2023-01-29T19:12:57.347Z,102208.97
2023-01-29T19:15:23.929Z,102215.88
2023-01-29T19:17:50.962Z,102213.25
2023-01-29T19:20:18.134Z,102210.66
2023-01-29T19:22:44.673Z,102203.75
2023-01-29T19:25:11.248Z,102208.97
2023-01-29T19:27:37.821Z,102233.25
2023-01-29T19:30:05.849Z,102215.88
2023-01-29T19:32:32.468Z,102204.50
2023-01-29T19:34:58.925Z,102204.38
2023-01-29T19:37:25.568Z,102201.75
2023-01-29T19:39:52.105Z,102204.50
2023-01-29T19:42:20.402Z,102207.09
2023-01-29T19:44:47.150Z,102197.50
2023-01-29T19:47:13.829Z,102192.16
2023-01-29T19:49:40.625Z,102202.50
2023-01-29T19:52:14.853Z,102210.31
2023-01-29T19:54:46.667Z,102200.72
2023-01-29T19:57:13.226Z,102181.66
2023-01-29T19:59:40.096Z,102187.69
2023-01-29T20:02:06.740Z,102185.09
2023-01-29T20:04:33.306Z,102185.91
2023-01-29T20:06:59.865Z,102196.22
2023-01-29T20:09:26.419Z,102191.00
2023-01-29T20:11:52.977Z,102193.59
2023-01-29T20:14:19.841Z,102185.69
2023-01-29T20:16:46.319Z,102171.00
2023-01-29T20:19:13.238Z,102179.66
2023-01-29T20:21:41.818Z,102178.69
2023-01-29T20:24:12.362Z,102170.88
2023-01-29T20:26:39.229Z,102179.53
2023-01-29T20:29:06.546Z,102174.31
2023-01-29T20:31:33.816Z,102178.56
2023-01-29T20:34:00.373Z,102162.03
2023-01-29T20:36:27.007Z,102146.38
2023-01-29T20:38:53.644Z,102149.81
2023-01-29T20:41:21.201Z,102163.69
2023-01-29T20:43:50.860Z,102195.69
2023-01-29T20:46:19.986Z,102173.88
2023-01-29T20:48:47.222Z,102171.28
2023-01-29T20:51:16.579Z,102159.91
2023-01-29T20:53:48.266Z,102160.72
2023-01-29T20:56:16.440Z,102166.75
2023-01-29T20:58:44.961Z,102169.28
2023-01-29T21:01:14.137Z,102156.13
2023-01-29T21:03:41.636Z,102142.25
2023-01-29T21:06:10.152Z,102152.56
2023-01-29T21:08:41.513Z,102156.84
2023-01-29T21:11:09.587Z,102144.50
2023-01-29T21:13:36.389Z,102151.41
2023-01-29T21:16:03.609Z,102155.69
2023-01-29T21:18:30.298Z,102155.56
2023-01-29T21:20:56.910Z,102164.19
2023-01-29T21:23:23.757Z,102132.91
2023-01-29T21:25:50.321Z,102145.03
2023-01-29T21:28:16.950Z,102161.28
2023-01-29T21:30:43.857Z,102166.50
2023-01-29T21:33:10.482Z,102150.72
2023-01-29T21:35:37.862Z,102142.81
2023-01-29T21:38:04.672Z,102145.06
2023-01-29T21:40:31.337Z,102148.38
2023-01-29T21:43:13.068Z,102147.44
2023-01-29T21:45:41.025Z,102144.72
2023-01-29T21:48:09.222Z,102117.59
2023-01-29T21:50:36.316Z,102098.38
2023-01-29T21:53:03.255Z,102083.69
2023-01-29T21:55:30.048Z,102070.41
2023-01-29T21:58:04.388Z,102060.69
2023-01-29T22:00:31.103Z,102052.50
2023-01-29T22:02:57.622Z,102035.91
2023-01-29T22:05:24.516Z,102023.78
2023-01-29T22:07:51.277Z,102020.25
2023-01-29T22:10:19.039Z,102015.16
2023-01-29T22:12:46.444Z,102007.31
2023-01-29T22:15:14.440Z,102002.00
2023-01-29T22:17:41.892Z,102033.03
2023-01-29T22:20:12.928Z,102033.91
2023-01-29T22:22:39.802Z,102035.44
2023-01-29T22:25:06.795Z,102017.06
2023-01-29T22:27:34.020Z,102004.03
2023-01-29T22:30:00.689Z,102005.66
2023-01-29T22:32:27.408Z,102009.81
2023-01-29T22:34:54.078Z,102010.66
2023-01-29T22:37:20.735Z,102013.13
2023-01-29T22:39:47.403Z,102001.63
2023-01-29T22:42:13.931Z,101994.50
2023-01-29T22:44:40.563Z,101976.13
2023-01-29T22:47:07.128Z,101988.81
2023-01-29T22:49:33.720Z,101976.59
2023-01-29T22:52:12.310Z,101966.88
2023-01-29T22:54:42.841Z,101967.56
2023-01-29T22:57:14.341Z,101955.09
2023-01-29T22:59:41.028Z,101966.97
2023-01-29T23:02:08.645Z,101962.59
2023-01-29T23:04:35.282Z,101978.84
2023-01-29T23:07:02.098Z,101983.09
2023-01-29T23:09:28.699Z,101970.88
2023-01-29T23:11:55.286Z,101961.84
2023-01-29T23:14:21.935Z,101971.22
2023-01-29T23:16:48.826Z,101964.09
2023-01-29T23:19:15.839Z,101948.31
2023-01-29T23:21:42.513Z,101944.59
2023-01-29T23:24:09.666Z,101946.28
2023-01-29T23:26:54.895Z,101949.47
2023-01-29T23:29:21.635Z,101943.28
2023-01-29T23:31:48.488Z,101918.84
2023-01-29T23:34:15.601Z,101912.53
2023-01-29T23:36:42.693Z,101904.47
2023-01-29T23:39:09.743Z,101896.50
2023-01-29T23:41:36.699Z,101901.47
2023-01-29T23:44:03.460Z,101898.47
2023-01-29T23:46:31.782Z,101872.94
2023-01-29T23:48:58.598Z,101891.09
2023-01-29T23:51:28.364Z,101892.75
2023-01-29T23:53:54.995Z,101893.19
2023-01-29T23:56:21.580Z,101891.41
2023-01-29T23:58:48.374Z,101889.38
